Time;durP1;ratioP1;P1;durP2;ratioP2;P2;SDS_P1;SDS_P2;PMS_P1;PMS_P2;Temp;Humidity;BMP_temperature;BMP_pressure;BME280_temperature;BME280_humidity;BME280_pressure;Samples;Min_cycle;Max_cycle;Signal;HPM_P1;HPM_P2
2022/05/03 00:02:10;;;;;;;1.97;1.77;;;;;;;;;;5010715;28;20208;-62
2022/05/03 00:04:46;;;;;;;1.30;1.20;;;;;;;;;;5007869;28;20215;-62
2022/05/03 00:07:33;;;;;;;1.00;1.00;;;;;;;;;;5010334;28;20261;-62
2022/05/03 00:10:13;;;;;;;1.30;1.20;;;;;;;;;;5024952;28;20211;-62
2022/05/03 00:12:51;;;;;;;1.40;1.30;;;;;;;;;;5027806;28;20567;-62
2022/05/03 00:15:21;;;;;;;1.57;1.27;;;;;;;;;;5023438;28;20206;-62
2022/05/03 00:17:55;;;;;;;1.43;1.30;;;;;;;;;;4985891;28;20212;-62
2022/05/03 00:20:26;;;;;;;1.37;1.27;;;;;;;;;;5008918;28;20203;-62
2022/05/03 00:22:55;;;;;;;1.30;1.20;;;;;;;;;;5011791;28;20650;-62
2022/05/03 00:25:22;;;;;;;2.20;1.23;;;;;;;;;;5010126;28;20199;-62
2022/05/03 00:27:50;;;;;;;1.20;1.10;;;;;;;;;;5005380;28;20270;-62
2022/05/03 00:30:17;;;;;;;1.97;1.23;;;;;;;;;;5009973;28;20196;-62
2022/05/03 00:32:45;;;;;;;2.37;1.30;;;;;;;;;;5027952;28;20564;-62
2022/05/03 00:35:13;;;;;;;1.00;1.00;;;;;;;;;;5024620;28;20289;-62
2022/05/03 00:37:40;;;;;;;1.27;1.17;;;;;;;;;;5024955;28;20580;-61
2022/05/03 00:40:09;;;;;;;1.20;1.10;;;;;;;;;;5021719;28;20211;-61
2022/05/03 00:42:40;;;;;;;1.37;1.27;;;;;;;;;;4987821;28;20198;-62
2022/05/03 00:45:24;;;;;;;1.03;1.03;;;;;;;;;;5027451;28;20207;-62
2022/05/03 00:47:55;;;;;;;1.20;1.00;;;;;;;;;;5001751;28;20296;-62
2022/05/03 00:50:37;;;;;;;1.23;1.10;;;;;;;;;;5007828;28;20203;-61
2022/05/03 00:53:11;;;;;;;1.40;1.30;;;;;;;;;;5027309;28;20202;-62
2022/05/03 00:55:56;;;;;;;0.93;0.83;;;;;;;;;;5025200;28;20198;-62
2022/05/03 00:58:36;;;;;;;1.10;1.07;;;;;;;;;;5008437;28;20457;-62
2022/05/03 01:01:22;;;;;;;1.30;1.20;;;;;;;;;;5012865;28;20559;-62
2022/05/03 01:04:08;;;;;;;1.20;1.10;;;;;;;;;;5024567;28;20190;-62
2022/05/03 01:06:41;;;;;;;0.93;0.93;;;;;;;;;;5026782;28;20672;-62
2022/05/03 01:09:09;;;;;;;1.20;1.10;;;;;;;;;;5027169;28;20222;-62
2022/05/03 01:11:37;;;;;;;1.23;1.10;;;;;;;;;;5024473;28;20556;-62
2022/05/03 01:14:23;;;;;;;0.90;0.90;;;;;;;;;;5025410;28;20206;-62
2022/05/03 01:17:00;;;;;;;1.30;1.20;;;;;;;;;;5020346;28;20249;-62
2022/05/03 01:19:41;;;;;;;0.83;0.83;;;;;;;;;;5027411;28;20252;-62
2022/05/03 01:22:27;;;;;;;1.33;1.23;;;;;;;;;;4999246;28;20806;-62
2022/05/03 01:24:54;;;;;;;1.97;1.10;;;;;;;;;;5007424;28;20207;-61
2022/05/03 01:27:29;;;;;;;2.73;1.23;;;;;;;;;;5021350;28;20190;-62
2022/05/03 01:29:59;;;;;;;1.37;1.10;;;;;;;;;;5024737;28;20203;-62
2022/05/03 01:32:26;;;;;;;1.20;1.10;;;;;;;;;;5027278;28;20196;-61
2022/05/03 01:34:55;;;;;;;1.37;1.27;;;;;;;;;;5015505;28;20227;-61
2022/05/03 01:37:34;;;;;;;1.93;0.80;;;;;;;;;;5009310;28;20196;-61
2022/05/03 01:40:14;;;;;;;1.30;1.20;;;;;;;;;;5004661;28;20386;-64
2022/05/03 01:43:14;;;;;;;1.33;1.00;;;;;;;;;;5024591;28;20261;-64
2022/05/03 01:46:01;;;;;;;1.67;1.20;;;;;;;;;;5003944;28;20228;-63
2022/05/03 01:51:43;;;;;;;1.37;1.00;;;;;;;;;;4999073;28;20210;-63
2022/05/03 01:54:41;;;;;;;2.03;1.23;;;;;;;;;;5008882;28;20207;-63
2022/05/03 01:57:32;;;;;;;1.73;1.10;;;;;;;;;;5010791;28;20680;-63
2022/05/03 02:00:11;;;;;;;1.30;1.20;;;;;;;;;;4953807;28;20252;-63
2022/05/03 02:02:57;;;;;;;1.30;1.10;;;;;;;;;;5001907;28;20207;-63
2022/05/03 02:05:37;;;;;;;1.30;0.90;;;;;;;;;;5010102;28;20226;-63
2022/05/03 02:08:10;;;;;;;1.30;1.20;;;;;;;;;;5009286;28;20540;-63
2022/05/03 02:10:46;;;;;;;1.20;1.10;;;;;;;;;;4996687;28;20224;-62
2022/05/03 02:14:44;;;;;;;1.30;0.93;;;;;;;;;;5007210;28;20261;-62
2022/05/03 02:16:23;;;;;;;1.13;0.97;;;;;;;;;;4992663;28;20200;-62
2022/05/03 02:18:55;;;;;;;1.67;1.43;;;;;;;;;;5010318;28;20204;-62
2022/05/03 02:21:25;;;;;;;1.20;1.10;;;;;;;;;;5003745;28;20196;-63
2022/05/03 02:24:10;;;;;;;1.20;1.10;;;;;;;;;;5005073;28;20257;-63
2022/05/03 02:26:37;;;;;;;1.33;1.03;;;;;;;;;;5009793;28;20219;-62
2022/05/03 02:29:10;;;;;;;1.27;1.10;;;;;;;;;;5010410;28;20195;-63
2022/05/03 02:31:51;;;;;;;1.30;1.20;;;;;;;;;;5008703;28;20204;-62
2022/05/03 02:34:27;;;;;;;1.13;0.97;;;;;;;;;;5007747;28;20223;-63
2022/05/03 02:37:04;;;;;;;1.20;1.10;;;;;;;;;;5009807;28;20191;-63
2022/05/03 02:39:31;;;;;;;2.40;1.10;;;;;;;;;;5009775;28;20372;-63
2022/05/03 02:42:00;;;;;;;1.10;1.00;;;;;;;;;;5007436;28;20641;-63
2022/05/03 02:44:29;;;;;;;1.00;1.00;;;;;;;;;;5001361;28;20200;-63
2022/05/03 02:47:01;;;;;;;1.77;1.03;;;;;;;;;;4990348;28;20215;-63
2022/05/03 02:49:48;;;;;;;1.40;1.10;;;;;;;;;;5004953;28;20184;-63
2022/05/03 02:52:19;;;;;;;0.80;0.80;;;;;;;;;;4994976;28;20196;-63
2022/05/03 02:54:46;;;;;;;1.13;1.03;;;;;;;;;;5002722;28;20845;-63
2022/05/03 02:57:19;;;;;;;1.17;0.97;;;;;;;;;;5009108;28;20289;-62
2022/05/03 03:02:54;;;;;;;1.33;1.23;;;;;;;;;;5029418;28;20209;-63
2022/05/03 03:05:22;;;;;;;1.10;0.77;;;;;;;;;;5029339;28;20207;-63
2022/05/03 03:08:01;;;;;;;0.90;0.90;;;;;;;;;;5026134;28;20203;-63
2022/05/03 03:10:31;;;;;;;0.83;0.83;;;;;;;;;;4987497;28;20216;-62
2022/05/03 03:12:59;;;;;;;0.77;0.77;;;;;;;;;;5008470;28;20238;-63
2022/05/03 03:15:28;;;;;;;1.00;1.00;;;;;;;;;;5023172;28;20276;-63
2022/05/03 03:17:57;;;;;;;0.80;0.80;;;;;;;;;;5014942;28;20277;-63
2022/05/03 03:20:28;;;;;;;0.90;0.90;;;;;;;;;;5027552;28;20573;-63
2022/05/03 03:22:55;;;;;;;1.00;0.93;;;;;;;;;;5026141;28;20687;-63
2022/05/03 03:25:23;;;;;;;1.00;0.90;;;;;;;;;;5028425;28;20244;-63
2022/05/03 03:27:52;;;;;;;1.50;0.90;;;;;;;;;;5025964;28;20260;-63
2022/05/03 03:30:21;;;;;;;1.03;0.70;;;;;;;;;;5028162;28;20226;-63
2022/05/03 03:32:58;;;;;;;0.90;0.90;;;;;;;;;;5011008;28;20195;-62
2022/05/03 03:35:25;;;;;;;1.10;0.80;;;;;;;;;;5026076;28;20221;-63
2022/05/03 03:37:53;;;;;;;1.03;0.90;;;;;;;;;;5026217;28;20207;-63
2022/05/03 03:40:20;;;;;;;0.90;0.90;;;;;;;;;;5028484;28;20188;-63
2022/05/03 03:42:48;;;;;;;1.10;1.10;;;;;;;;;;5028389;28;20187;-63
2022/05/03 03:45:16;;;;;;;1.00;0.90;;;;;;;;;;5013092;28;20223;-63
2022/05/03 03:47:45;;;;;;;0.80;0.80;;;;;;;;;;5006926;28;20683;-63
2022/05/03 03:50:13;;;;;;;2.10;1.00;;;;;;;;;;5016966;28;20216;-62
2022/05/03 03:52:42;;;;;;;0.80;0.80;;;;;;;;;;5011087;28;20241;-62
2022/05/03 03:58:33;;;;;;;0.93;0.93;;;;;;;;;;5024093;28;20247;-62
2022/05/03 04:01:02;;;;;;;1.10;1.00;;;;;;;;;;5009628;28;20251;-62
2022/05/03 04:03:34;;;;;;;2.27;0.80;;;;;;;;;;5028142;28;20207;-63
2022/05/03 04:06:07;;;;;;;0.77;0.77;;;;;;;;;;5026011;28;20226;-62
2022/05/03 04:08:37;;;;;;;0.80;0.80;;;;;;;;;;5023367;28;20206;-62
2022/05/03 04:11:18;;;;;;;0.77;0.77;;;;;;;;;;4995474;28;20670;-62
2022/05/03 04:13:49;;;;;;;0.83;0.80;;;;;;;;;;5018185;28;20219;-62
2022/05/03 04:16:21;;;;;;;1.33;1.03;;;;;;;;;;4995701;28;20200;-63
2022/05/03 04:18:53;;;;;;;0.70;0.70;;;;;;;;;;4992447;28;20199;-63
2022/05/03 04:21:23;;;;;;;0.70;0.70;;;;;;;;;;5027416;28;20195;-63
2022/05/03 04:23:53;;;;;;;2.00;0.70;;;;;;;;;;5021718;28;20217;-62
2022/05/03 04:26:22;;;;;;;1.63;0.90;;;;;;;;;;5027498;28;20233;-63
2022/05/03 04:28:56;;;;;;;0.77;0.77;;;;;;;;;;5028142;28;20214;-62
2022/05/03 04:31:27;;;;;;;0.80;0.80;;;;;;;;;;5010546;28;20195;-63
2022/05/03 04:34:07;;;;;;;0.70;0.60;;;;;;;;;;4994940;28;20218;-62
2022/05/03 04:36:39;;;;;;;1.23;0.83;;;;;;;;;;5027617;28;20195;-63
2022/05/03 04:39:08;;;;;;;1.17;0.77;;;;;;;;;;5027345;28;20207;-63
2022/05/03 04:41:41;;;;;;;1.10;1.00;;;;;;;;;;5022939;28;20656;-62
2022/05/03 04:44:14;;;;;;;2.20;0.90;;;;;;;;;;5003106;28;20222;-62
2022/05/03 04:46:58;;;;;;;0.80;0.80;;;;;;;;;;5009275;28;20868;-63
2022/05/03 04:49:25;;;;;;;0.70;0.70;;;;;;;;;;5024937;28;20256;-62
2022/05/03 04:51:52;;;;;;;2.03;0.77;;;;;;;;;;5005410;28;20246;-62
2022/05/03 04:54:19;;;;;;;0.73;0.70;;;;;;;;;;5019109;28;20199;-63
2022/05/03 04:56:49;;;;;;;1.10;1.00;;;;;;;;;;5027306;28;20242;-62
2022/05/03 04:59:16;;;;;;;0.90;0.90;;;;;;;;;;5024587;28;20891;-62
2022/05/03 05:01:43;;;;;;;0.70;0.70;;;;;;;;;;5024967;28;20187;-62
2022/05/03 05:04:11;;;;;;;0.83;0.83;;;;;;;;;;5027105;28;20190;-62
2022/05/03 05:06:38;;;;;;;0.80;0.80;;;;;;;;;;5007822;28;20231;-62
2022/05/03 05:09:05;;;;;;;1.13;0.97;;;;;;;;;;5015124;28;20191;-63
2022/05/03 05:11:32;;;;;;;0.83;0.83;;;;;;;;;;5006006;28;20285;-62
2022/05/03 05:13:59;;;;;;;0.93;0.77;;;;;;;;;;5011607;28;20187;-62
2022/05/03 05:16:27;;;;;;;0.80;0.80;;;;;;;;;;5013713;28;20255;-61
2022/05/03 05:18:54;;;;;;;1.10;1.00;;;;;;;;;;5012404;28;20596;-62
2022/05/03 05:21:21;;;;;;;0.80;0.80;;;;;;;;;;5026952;28;20207;-62
2022/05/03 05:23:48;;;;;;;1.00;0.87;;;;;;;;;;5021945;28;20230;-62
2022/05/03 05:26:16;;;;;;;1.07;0.80;;;;;;;;;;5026713;28;20313;-62
2022/05/03 05:28:43;;;;;;;1.40;0.90;;;;;;;;;;5026340;28;20257;-62
2022/05/03 05:31:10;;;;;;;1.77;0.97;;;;;;;;;;4993358;28;20215;-62
2022/05/03 05:33:37;;;;;;;0.80;0.80;;;;;;;;;;4990866;28;20209;-62
2022/05/03 05:36:04;;;;;;;1.00;0.80;;;;;;;;;;4983650;28;20213;-62
2022/05/03 05:38:32;;;;;;;0.83;0.83;;;;;;;;;;4998153;28;20525;-63
2022/05/03 05:40:59;;;;;;;0.97;0.70;;;;;;;;;;5006825;28;20246;-63
2022/05/03 05:43:26;;;;;;;0.93;0.70;;;;;;;;;;5009123;28;20203;-62
2022/05/03 05:45:53;;;;;;;0.90;0.90;;;;;;;;;;5009652;28;20211;-62
2022/05/03 05:48:20;;;;;;;0.80;0.80;;;;;;;;;;4992768;28;20714;-62
2022/05/03 05:50:48;;;;;;;1.00;1.00;;;;;;;;;;5027869;28;20194;-62
2022/05/03 05:53:34;;;;;;;0.80;0.80;;;;;;;;;;5030575;28;20206;-62
2022/05/03 05:56:07;;;;;;;1.17;0.97;;;;;;;;;;5027217;28;20215;-62
2022/05/03 05:58:39;;;;;;;1.00;0.90;;;;;;;;;;5013761;28;20208;-62
2022/05/03 06:01:07;;;;;;;0.90;0.90;;;;;;;;;;4996737;28;20243;-62
2022/05/03 06:03:41;;;;;;;1.37;0.93;;;;;;;;;;4992426;28;20228;-62
2022/05/03 06:06:10;;;;;;;1.20;1.10;;;;;;;;;;5006994;28;20223;-62
2022/05/03 06:08:42;;;;;;;1.87;1.20;;;;;;;;;;4989906;28;20286;-62
2022/05/03 06:11:14;;;;;;;1.83;0.90;;;;;;;;;;4996869;28;20220;-62
2022/05/03 06:13:44;;;;;;;2.03;0.97;;;;;;;;;;5002651;28;20195;-62
2022/05/03 06:16:15;;;;;;;0.93;0.93;;;;;;;;;;4997589;28;20200;-62
2022/05/03 06:18:46;;;;;;;1.10;1.00;;;;;;;;;;4990412;28;20626;-60
2022/05/03 06:21:15;;;;;;;1.40;1.27;;;;;;;;;;5004780;28;20207;-62
2022/05/03 06:23:46;;;;;;;1.30;1.10;;;;;;;;;;4996344;28;20240;-61
2022/05/03 06:26:17;;;;;;;1.23;1.13;;;;;;;;;;4988768;28;20235;-62
2022/05/03 06:28:46;;;;;;;1.10;1.00;;;;;;;;;;4990498;28;20358;-62
2022/05/03 06:31:20;;;;;;;0.80;0.80;;;;;;;;;;5003669;28;20207;-62
2022/05/03 06:33:50;;;;;;;0.93;0.93;;;;;;;;;;4997047;28;20192;-62
2022/05/03 06:36:17;;;;;;;1.20;1.10;;;;;;;;;;5002321;28;20209;-62
2022/05/03 06:38:45;;;;;;;0.90;0.90;;;;;;;;;;5000933;28;20279;-62
2022/05/03 06:41:17;;;;;;;1.30;1.20;;;;;;;;;;4999761;28;20211;-62
2022/05/03 06:43:44;;;;;;;1.13;1.00;;;;;;;;;;5000525;28;20208;-62
2022/05/03 06:46:11;;;;;;;2.40;1.23;;;;;;;;;;4999748;28;20236;-62
2022/05/03 06:48:38;;;;;;;2.10;0.90;;;;;;;;;;5005297;28;20210;-62
2022/05/03 06:51:06;;;;;;;1.80;1.40;;;;;;;;;;4991933;28;20261;-63
2022/05/03 06:53:34;;;;;;;1.37;1.10;;;;;;;;;;5009940;28;20211;-62
2022/05/03 06:56:01;;;;;;;1.20;1.10;;;;;;;;;;5005489;28;20208;-62
2022/05/03 06:58:28;;;;;;;0.90;0.90;;;;;;;;;;5003046;28;20606;-62
2022/05/03 07:00:55;;;;;;;0.90;0.90;;;;;;;;;;4992907;28;20269;-62
2022/05/03 07:03:22;;;;;;;1.00;0.97;;;;;;;;;;5002393;28;20431;-62
2022/05/03 07:05:50;;;;;;;1.33;1.00;;;;;;;;;;5002956;28;20235;-60
2022/05/03 07:08:17;;;;;;;1.40;1.30;;;;;;;;;;5006002;28;20203;-62
2022/05/03 07:10:44;;;;;;;1.57;1.20;;;;;;;;;;4989263;28;20211;-62
2022/05/03 07:13:12;;;;;;;1.33;1.23;;;;;;;;;;5011642;28;20669;-62
2022/05/03 07:15:39;;;;;;;1.60;1.20;;;;;;;;;;4990672;28;20195;-62
2022/05/03 07:23:39;;;;;;;1.40;1.30;;;;;;;;;;5004108;28;20239;-62
2022/05/03 07:26:06;;;;;;;1.40;1.30;;;;;;;;;;5007968;28;20663;-62
2022/05/03 07:28:33;;;;;;;3.40;1.30;;;;;;;;;;5008066;28;20196;-62
2022/05/03 07:31:00;;;;;;;1.60;1.50;;;;;;;;;;5008485;28;20233;-62
2022/05/03 07:33:28;;;;;;;1.17;1.07;;;;;;;;;;5008454;28;20211;-62
2022/05/03 07:36:01;;;;;;;2.10;1.30;;;;;;;;;;5002886;28;20304;-62
2022/05/03 07:38:29;;;;;;;2.60;1.33;;;;;;;;;;5007828;28;20200;-60
2022/05/03 07:40:56;;;;;;;1.27;1.17;;;;;;;;;;5010030;28;20188;-61
2022/05/03 07:43:24;;;;;;;1.37;1.23;;;;;;;;;;4995241;28;20200;-61
2022/05/03 07:45:51;;;;;;;1.30;1.07;;;;;;;;;;4991445;28;20247;-61
2022/05/03 07:48:18;;;;;;;1.20;1.10;;;;;;;;;;5005988;28;20200;-60
2022/05/03 07:50:45;;;;;;;1.37;1.27;;;;;;;;;;5008286;28;20199;-61
2022/05/03 07:53:12;;;;;;;1.20;0.90;;;;;;;;;;5001341;28;20305;-60
2022/05/03 07:55:40;;;;;;;1.27;1.17;;;;;;;;;;5000664;28;20196;-60
2022/05/03 07:58:07;;;;;;;1.50;1.20;;;;;;;;;;5007707;28;20275;-60
2022/05/03 08:00:34;;;;;;;1.40;0.90;;;;;;;;;;5000313;28;20751;-60
2022/05/03 08:03:01;;;;;;;2.27;1.10;;;;;;;;;;5003142;28;20396;-61
2022/05/03 08:05:28;;;;;;;1.73;1.37;;;;;;;;;;5003647;28;20195;-61
2022/05/03 08:07:55;;;;;;;1.87;1.40;;;;;;;;;;5007555;28;20297;-60
2022/05/03 08:10:23;;;;;;;1.17;1.17;;;;;;;;;;5001933;28;20405;-60
2022/05/03 08:12:51;;;;;;;1.23;0.87;;;;;;;;;;5010046;28;20207;-61
2022/05/03 08:15:21;;;;;;;1.00;0.80;;;;;;;;;;4993945;28;20204;-61
2022/05/03 08:17:52;;;;;;;1.40;1.07;;;;;;;;;;4987938;28;20691;-61
2022/05/03 08:20:21;;;;;;;0.80;0.80;;;;;;;;;;5002383;28;20208;-60
2022/05/03 08:22:51;;;;;;;1.03;1.00;;;;;;;;;;4991516;28;20603;-61
2022/05/03 08:25:22;;;;;;;1.30;1.10;;;;;;;;;;4987838;28;20291;-60
2022/05/03 08:27:51;;;;;;;1.53;1.10;;;;;;;;;;4997732;28;20212;-61
2022/05/03 08:30:21;;;;;;;0.80;0.80;;;;;;;;;;4988007;28;20251;-61
2022/05/03 08:32:50;;;;;;;1.47;1.23;;;;;;;;;;4988890;28;20185;-61
2022/05/03 08:35:24;;;;;;;1.37;1.00;;;;;;;;;;4985801;28;20270;-60
2022/05/03 08:43:37;;;;;;;2.17;1.00;;;;;;;;;;5024892;28;20197;-62
2022/05/03 08:46:08;;;;;;;1.00;1.00;;;;;;;;;;5004590;28;20304;-62
2022/05/03 08:48:41;;;;;;;1.20;1.10;;;;;;;;;;4995707;28;20193;-62
2022/05/03 08:51:15;;;;;;;3.70;1.00;;;;;;;;;;4990641;28;20202;-61
2022/05/03 08:53:45;;;;;;;7.07;1.80;;;;;;;;;;4991383;28;20204;-63
2022/05/03 08:56:17;;;;;;;5.50;1.67;;;;;;;;;;4987532;28;20530;-64
2022/05/03 08:58:45;;;;;;;9.03;1.60;;;;;;;;;;5006776;28;20218;-61
2022/05/03 09:01:15;;;;;;;5.83;1.60;;;;;;;;;;4995464;28;20757;-60
2022/05/03 09:03:48;;;;;;;5.40;1.73;;;;;;;;;;4985901;28;20279;-62
2022/05/03 09:06:44;;;;;;;5.37;1.77;;;;;;;;;;4995488;28;20300;-61
2022/05/03 09:09:19;;;;;;;5.33;1.87;;;;;;;;;;4989763;28;20208;-61
2022/05/03 09:11:53;;;;;;;5.20;1.50;;;;;;;;;;4984100;28;20621;-61
2022/05/03 09:14:42;;;;;;;3.60;1.80;;;;;;;;;;5007101;28;20208;-61
2022/05/03 09:17:15;;;;;;;2.50;1.57;;;;;;;;;;5001380;28;20210;-61
2022/05/03 09:23:46;;;;;;;1.87;1.43;;;;;;;;;;5026555;28;20191;-61
2022/05/03 09:26:24;;;;;;;2.80;1.57;;;;;;;;;;5005104;28;20233;-61
2022/05/03 09:29:09;;;;;;;5.27;1.67;;;;;;;;;;5002785;28;20686;-61
2022/05/03 09:31:41;;;;;;;4.13;1.87;;;;;;;;;;5009343;28;20172;-61
2022/05/03 09:34:33;;;;;;;1.73;1.50;;;;;;;;;;5011641;28;20619;-60
2022/05/03 09:37:05;;;;;;;2.33;1.70;;;;;;;;;;5010715;28;20211;-60
2022/05/03 09:39:45;;;;;;;2.53;1.97;;;;;;;;;;5023799;28;20187;-60
2022/05/03 09:42:24;;;;;;;2.83;1.70;;;;;;;;;;5012506;28;20233;-61
2022/05/03 09:45:00;;;;;;;3.87;2.13;;;;;;;;;;5014487;28;20273;-61
2022/05/03 09:47:51;;;;;;;2.70;1.93;;;;;;;;;;5006894;28;20243;-61
2022/05/03 09:50:38;;;;;;;2.70;2.30;;;;;;;;;;5029339;28;20199;-61
2022/05/03 09:53:21;;;;;;;2.27;2.00;;;;;;;;;;5029749;28;20286;-61
2022/05/03 09:55:55;;;;;;;2.30;2.10;;;;;;;;;;4990511;28;20266;-61
2022/05/03 09:58:26;;;;;;;1.97;1.80;;;;;;;;;;5009297;28;20710;-61
2022/05/03 10:00:57;;;;;;;2.23;1.93;;;;;;;;;;5030204;28;20231;-61
2022/05/03 10:03:28;;;;;;;2.30;2.10;;;;;;;;;;5030371;28;20726;-61
2022/05/03 10:05:59;;;;;;;4.63;1.70;;;;;;;;;;4978114;28;20208;-62
2022/05/03 10:08:34;;;;;;;1.57;1.47;;;;;;;;;;5026962;28;20230;-61
2022/05/03 10:11:03;;;;;;;2.07;1.70;;;;;;;;;;5000014;28;20657;-61
2022/05/03 10:13:32;;;;;;;2.10;2.00;;;;;;;;;;5012648;28;20801;-61
2022/05/03 10:21:49;;;;;;;1.90;1.80;;;;;;;;;;5002100;28;20555;-60
2022/05/03 10:24:17;;;;;;;3.07;2.30;;;;;;;;;;5014044;28;20873;-61
2022/05/03 10:27:09;;;;;;;3.43;2.93;;;;;;;;;;5010372;28;20360;-61
2022/05/03 10:29:38;;;;;;;4.10;3.27;;;;;;;;;;5011420;28;20219;-61
2022/05/03 10:32:14;;;;;;;2.93;2.70;;;;;;;;;;5007918;28;20697;-61
2022/05/03 10:35:04;;;;;;;3.60;2.57;;;;;;;;;;5008344;28;20221;-60
2022/05/03 10:37:39;;;;;;;2.80;2.60;;;;;;;;;;5021947;28;20649;-61
2022/05/03 10:40:12;;;;;;;2.67;2.20;;;;;;;;;;5015510;28;20206;-61
2022/05/03 10:43:04;;;;;;;2.20;2.00;;;;;;;;;;4976362;28;20285;-61
2022/05/03 10:45:56;;;;;;;2.20;2.00;;;;;;;;;;5024753;28;20215;-63
2022/05/03 10:48:27;;;;;;;2.60;2.20;;;;;;;;;;5029024;28;20261;-62
2022/05/03 10:51:01;;;;;;;2.40;2.20;;;;;;;;;;5007075;28;20327;-62
2022/05/03 10:53:38;;;;;;;2.67;2.20;;;;;;;;;;5025536;28;20192;-62
2022/05/03 10:56:17;;;;;;;1.93;1.80;;;;;;;;;;5012775;28;20199;-62
2022/05/03 10:59:03;;;;;;;2.30;2.10;;;;;;;;;;5025747;28;20225;-62
2022/05/03 11:01:35;;;;;;;2.13;1.93;;;;;;;;;;5009702;28;20188;-62
2022/05/03 11:04:09;;;;;;;2.23;2.00;;;;;;;;;;4992119;28;20529;-62
2022/05/03 11:06:41;;;;;;;2.63;2.10;;;;;;;;;;5007943;28;20203;-62
2022/05/03 11:09:15;;;;;;;1.90;1.77;;;;;;;;;;5005342;28;20657;-62
2022/05/03 11:11:53;;;;;;;1.83;1.73;;;;;;;;;;4980787;28;20220;-62
2022/05/03 11:14:24;;;;;;;1.67;1.57;;;;;;;;;;5007696;28;20180;-62
2022/05/03 11:17:08;;;;;;;1.80;1.60;;;;;;;;;;4992134;28;20219;-62
2022/05/03 11:19:38;;;;;;;2.43;1.70;;;;;;;;;;4977471;28;20212;-62
2022/05/03 11:22:13;;;;;;;2.00;1.90;;;;;;;;;;4994419;28;20220;-63
2022/05/03 11:24:45;;;;;;;1.67;1.57;;;;;;;;;;5004252;28;20254;-62
2022/05/03 11:27:22;;;;;;;1.70;1.33;;;;;;;;;;4973065;28;20570;-62
2022/05/03 11:29:57;;;;;;;1.67;1.57;;;;;;;;;;4985883;28;20630;-62
2022/05/03 11:32:33;;;;;;;1.70;1.60;;;;;;;;;;4987341;28;20193;-63
2022/05/03 11:35:07;;;;;;;2.03;1.63;;;;;;;;;;4982785;28;20216;-62
2022/05/03 11:37:45;;;;;;;2.10;1.90;;;;;;;;;;4988674;28;20222;-62
2022/05/03 11:40:16;;;;;;;1.93;1.70;;;;;;;;;;5004516;28;20204;-61
2022/05/03 11:42:47;;;;;;;1.63;1.53;;;;;;;;;;4989393;28;20200;-61
2022/05/03 11:45:19;;;;;;;1.63;1.50;;;;;;;;;;5003752;28;20209;-62
2022/05/03 11:47:50;;;;;;;1.63;1.53;;;;;;;;;;4982416;28;20224;-62
2022/05/03 11:56:09;;;;;;;1.87;1.77;;;;;;;;;;4993158;28;20184;-63
2022/05/03 11:58:45;;;;;;;3.20;2.00;;;;;;;;;;5005519;28;20204;-62
2022/05/03 12:01:17;;;;;;;2.33;2.10;;;;;;;;;;4998495;28;20239;-62
2022/05/03 12:03:49;;;;;;;2.17;2.03;;;;;;;;;;4988036;28;20176;-61
2022/05/03 12:06:19;;;;;;;2.37;1.97;;;;;;;;;;5005646;28;20195;-62
2022/05/03 12:08:54;;;;;;;2.10;1.90;;;;;;;;;;5011660;28;20218;-62
2022/05/03 12:11:26;;;;;;;1.73;1.63;;;;;;;;;;5025498;28;20211;-62
2022/05/03 12:13:57;;;;;;;1.97;1.30;;;;;;;;;;4989000;28;20258;-63
2022/05/03 12:16:28;;;;;;;2.20;1.80;;;;;;;;;;5009247;28;20516;-62
2022/05/03 12:19:05;;;;;;;1.70;1.60;;;;;;;;;;5008511;28;20261;-63
2022/05/03 12:21:44;;;;;;;2.33;1.83;;;;;;;;;;5024432;28;20232;-62
2022/05/03 12:24:37;;;;;;;1.83;1.60;;;;;;;;;;5027548;28;20179;-62
2022/05/03 12:27:17;;;;;;;2.37;2.17;;;;;;;;;;5027404;28;20640;-62
2022/05/03 12:29:51;;;;;;;2.60;2.40;;;;;;;;;;5008179;28;20700;-62
2022/05/03 12:32:22;;;;;;;2.50;1.90;;;;;;;;;;4988889;28;20176;-63
2022/05/03 12:35:07;;;;;;;2.17;2.00;;;;;;;;;;4993848;28;20606;-63
2022/05/03 12:37:53;;;;;;;2.00;1.83;;;;;;;;;;5023365;28;20207;-63
2022/05/03 12:40:25;;;;;;;1.90;1.80;;;;;;;;;;5027435;28;20203;-62
2022/05/03 12:42:55;;;;;;;1.73;1.63;;;;;;;;;;5027022;28;20203;-62
2022/05/03 12:45:33;;;;;;;3.40;1.97;;;;;;;;;;5013433;28;20199;-62
2022/05/03 12:48:06;;;;;;;1.90;1.77;;;;;;;;;;5020996;28;20235;-62
2022/05/03 12:50:38;;;;;;;2.37;1.70;;;;;;;;;;5006239;28;20514;-62
2022/05/03 12:53:14;;;;;;;1.70;1.60;;;;;;;;;;5007803;28;20241;-62
2022/05/03 12:55:44;;;;;;;1.67;1.57;;;;;;;;;;5009829;28;20199;-62
2022/05/03 12:58:22;;;;;;;1.50;1.40;;;;;;;;;;5007273;28;20227;-62
2022/05/03 13:00:51;;;;;;;1.47;1.37;;;;;;;;;;5026865;28;20785;-62
2022/05/03 13:03:34;;;;;;;2.20;2.00;;;;;;;;;;5012236;28;20211;-63
2022/05/03 13:06:06;;;;;;;2.00;1.80;;;;;;;;;;5024807;28;20269;-62
2022/05/03 13:08:37;;;;;;;2.60;2.40;;;;;;;;;;5019193;28;20265;-62
2022/05/03 13:11:10;;;;;;;2.10;1.90;;;;;;;;;;4978450;28;20206;-63
2022/05/03 13:13:40;;;;;;;1.77;1.67;;;;;;;;;;5007178;28;20265;-62
2022/05/03 13:16:10;;;;;;;1.50;1.40;;;;;;;;;;5009037;28;20226;-62
2022/05/03 13:18:40;;;;;;;1.43;1.33;;;;;;;;;;5027279;28;20199;-62
2022/05/03 13:21:36;;;;;;;1.80;1.40;;;;;;;;;;5026866;28;20195;-62
2022/05/03 13:24:06;;;;;;;1.40;1.30;;;;;;;;;;5021415;28;20211;-62
2022/05/03 13:26:41;;;;;;;1.27;1.17;;;;;;;;;;5026798;28;20734;-62
2022/05/03 13:29:12;;;;;;;1.50;1.40;;;;;;;;;;5009812;28;20227;-62
2022/05/03 13:31:41;;;;;;;1.40;1.23;;;;;;;;;;5025620;28;20199;-62
2022/05/03 13:34:12;;;;;;;1.70;1.60;;;;;;;;;;5027284;28;20195;-62
2022/05/03 13:42:20;;;;;;;2.07;1.57;;;;;;;;;;5027032;28;20331;-62
2022/05/03 13:44:51;;;;;;;2.00;1.90;;;;;;;;;;4998039;28;20204;-62
2022/05/03 13:47:22;;;;;;;2.70;2.50;;;;;;;;;;5020779;28;20207;-62
2022/05/03 13:49:51;;;;;;;3.03;2.73;;;;;;;;;;5013114;28;20219;-62
2022/05/03 13:52:30;;;;;;;3.07;2.60;;;;;;;;;;5021752;28;20195;-63
2022/05/03 13:55:08;;;;;;;2.80;2.60;;;;;;;;;;5027391;28;20180;-62
2022/05/03 13:57:38;;;;;;;2.83;2.53;;;;;;;;;;5025951;28;20196;-62
2022/05/03 14:00:10;;;;;;;2.77;2.17;;;;;;;;;;5026332;28;20235;-61
2022/05/03 14:02:42;;;;;;;2.80;2.53;;;;;;;;;;5030366;28;20187;-61
2022/05/03 14:05:17;;;;;;;2.57;2.33;;;;;;;;;;5020677;28;20214;-62
2022/05/03 14:07:51;;;;;;;3.00;2.37;;;;;;;;;;5021745;28;20779;-63
2022/05/03 14:10:40;;;;;;;2.40;2.20;;;;;;;;;;5010541;28;20258;-63
2022/05/03 14:13:11;;;;;;;2.30;2.10;;;;;;;;;;5026593;28;20284;-63
2022/05/03 14:15:40;;;;;;;2.00;1.80;;;;;;;;;;5022647;28;20202;-62
2022/05/03 14:18:11;;;;;;;2.00;1.67;;;;;;;;;;5027918;28;20785;-63
2022/05/03 14:20:44;;;;;;;1.60;1.50;;;;;;;;;;5030217;28;20302;-62
2022/05/03 14:23:21;;;;;;;2.27;1.80;;;;;;;;;;5030028;28;20192;-62
2022/05/03 14:25:53;;;;;;;2.40;2.20;;;;;;;;;;5024988;28;20226;-62
2022/05/03 14:28:25;;;;;;;1.97;1.70;;;;;;;;;;5029492;28;20265;-62
2022/05/03 14:30:55;;;;;;;3.90;1.90;;;;;;;;;;5029696;28;20207;-62
2022/05/03 14:33:26;;;;;;;2.33;1.57;;;;;;;;;;5029365;28;20195;-62
2022/05/03 14:35:53;;;;;;;2.00;1.90;;;;;;;;;;4996175;28;20526;-62
2022/05/03 14:38:20;;;;;;;2.03;1.83;;;;;;;;;;5027362;28;20273;-62
2022/05/03 14:40:48;;;;;;;1.90;1.80;;;;;;;;;;5030186;28;20222;-63
2022/05/03 14:43:16;;;;;;;1.90;1.80;;;;;;;;;;5029717;28;20199;-63
2022/05/03 14:45:44;;;;;;;2.50;2.30;;;;;;;;;;5008896;28;20204;-62
2022/05/03 14:48:11;;;;;;;2.00;1.80;;;;;;;;;;5009950;28;20250;-62
2022/05/03 14:50:40;;;;;;;2.07;1.90;;;;;;;;;;5009893;28;20226;-62
2022/05/03 14:53:11;;;;;;;2.40;2.20;;;;;;;;;;5024424;28;20583;-62
2022/05/03 14:55:39;;;;;;;2.40;2.20;;;;;;;;;;5029178;28;20646;-61
2022/05/03 15:03:49;;;;;;;4.63;4.20;;;;;;;;;;5025242;28;20199;-61
2022/05/03 15:06:24;;;;;;;4.67;4.20;;;;;;;;;;5009617;28;20199;-62
2022/05/03 15:08:55;;;;;;;6.23;5.33;;;;;;;;;;5016890;28;20223;-62
2022/05/03 15:11:27;;;;;;;7.07;5.80;;;;;;;;;;5009664;28;20685;-61
2022/05/03 15:13:55;;;;;;;6.87;6.17;;;;;;;;;;5005188;28;20215;-61
2022/05/03 15:16:28;;;;;;;7.00;5.77;;;;;;;;;;5015761;28;20585;-62
2022/05/03 15:18:59;;;;;;;5.90;5.30;;;;;;;;;;5027423;28;20298;-62
2022/05/03 15:21:33;;;;;;;6.40;5.80;;;;;;;;;;5029035;28;20207;-62
2022/05/03 15:26:53;;;;;;;7.53;6.73;;;;;;;;;;5029254;28;20214;-62
2022/05/03 15:29:23;;;;;;;8.47;7.57;;;;;;;;;;5029362;28;20219;-62
2022/05/03 15:31:54;;;;;;;7.60;6.77;;;;;;;;;;5026113;28;20203;-62
2022/05/03 15:34:29;;;;;;;6.73;5.83;;;;;;;;;;5021092;28;20207;-61
2022/05/03 15:37:00;;;;;;;6.17;5.57;;;;;;;;;;5007632;28;20242;-61
2022/05/03 15:39:33;;;;;;;10.53;5.60;;;;;;;;;;5029789;28;20202;-61
2022/05/03 15:42:06;;;;;;;5.47;4.90;;;;;;;;;;5009404;28;20209;-61
2022/05/03 15:44:38;;;;;;;6.23;5.50;;;;;;;;;;5015406;28;20203;-61
2022/05/03 15:47:06;;;;;;;7.33;5.93;;;;;;;;;;4992525;28;20218;-62
2022/05/03 15:49:33;;;;;;;6.93;6.13;;;;;;;;;;5002638;28;20231;-62
2022/05/03 15:52:01;;;;;;;7.90;6.50;;;;;;;;;;5006572;28;20219;-62
2022/05/03 15:54:30;;;;;;;6.53;5.57;;;;;;;;;;5028399;28;20199;-62
2022/05/03 15:56:57;;;;;;;6.17;5.57;;;;;;;;;;5024159;28;20254;-62
2022/05/03 15:59:24;;;;;;;6.27;5.67;;;;;;;;;;5026852;28;20207;-62
2022/05/03 16:01:51;;;;;;;6.83;5.63;;;;;;;;;;5009678;28;20231;-63
2022/05/03 16:04:18;;;;;;;6.40;5.80;;;;;;;;;;5026069;28;20683;-62
2022/05/03 16:06:46;;;;;;;6.60;5.90;;;;;;;;;;5028313;28;20195;-61